Terminal Aerodrome Forecast
Issued by NWS Shreveport, LA

Home | Current Version | Previous Version | Text Only | Print | Product List | Glossary On
Versions: 1 2 3 4 5 6 7 8 9 10 11 12 13 14
000
FTUS44 KSHV 292300
TAFLFK
TAF
KLFK 292340Z 3000/3024 VRB03KT P6SM BKN140
     FM301500 15006KT P6SM SCT025 BKN110
     FM301800 16006KT P6SM SCT040 SCT110 BKN250=

USA.gov is the U.S. government's official web portal to all federal, state and local government web resources and services.